createdAt,value
2018-12-05T00:02:22.521Z,6.90
2018-12-05T00:05:26.856Z,7.07
2018-12-05T00:08:31.141Z,8.10
2018-12-05T00:11:35.456Z,8.07
2018-12-05T00:14:39.345Z,8.17
2018-12-05T00:17:43.570Z,11.40
2018-12-05T00:20:47.974Z,6.50
2018-12-05T00:23:52.253Z,5.93
2018-12-05T00:26:56.620Z,5.17
2018-12-05T00:30:00.488Z,4.80
2018-12-05T00:33:04.402Z,7.17
2018-12-05T00:36:08.421Z,5.67
2018-12-05T00:39:12.750Z,5.87
2018-12-05T00:42:16.696Z,5.60
2018-12-05T00:45:20.801Z,6.43
2018-12-05T00:48:25.282Z,8.13
2018-12-05T00:51:29.572Z,8.50
2018-12-05T00:54:33.662Z,5.67
2018-12-05T00:57:37.760Z,5.80
2018-12-05T01:00:41.667Z,7.87
2018-12-05T01:03:45.617Z,11.23
2018-12-05T01:06:49.968Z,7.53
2018-12-05T01:09:54.259Z,7.40
2018-12-05T01:12:58.643Z,8.50
2018-12-05T01:16:02.712Z,6.17
2018-12-05T01:19:06.930Z,8.50
2018-12-05T01:22:11.160Z,5.67
2018-12-05T01:25:15.017Z,7.90
2018-12-05T01:28:19.357Z,6.33
2018-12-05T01:31:23.230Z,6.77
2018-12-05T01:34:27.402Z,5.37
2018-12-05T01:37:31.751Z,5.03
2018-12-05T01:40:36.021Z,7.67
2018-12-05T01:43:45.393Z,6.97
2018-12-05T01:46:49.691Z,6.40
2018-12-05T01:49:53.946Z,7.23
2018-12-05T01:52:58.279Z,6.10
2018-12-05T01:56:02.762Z,5.53
2018-12-05T01:59:07.299Z,5.53
2018-12-05T02:02:11.573Z,6.27
2018-12-05T02:05:16.034Z,5.63
2018-12-05T02:08:20.335Z,7.27
2018-12-05T02:11:24.569Z,6.00
2018-12-05T02:14:28.724Z,8.60
2018-12-05T02:17:32.816Z,6.80
2018-12-05T02:20:37.834Z,5.23
2018-12-05T02:23:41.864Z,5.77
2018-12-05T02:26:45.999Z,5.07
2018-12-05T02:29:55.378Z,6.53
2018-12-05T02:32:59.528Z,5.50
2018-12-05T02:36:04.156Z,6.17
2018-12-05T02:39:09.485Z,5.00
2018-12-05T02:42:13.625Z,7.07
2018-12-05T02:45:17.991Z,7.90
2018-12-05T02:48:22.379Z,7.70
2018-12-05T02:51:26.796Z,8.43
2018-12-05T02:54:31.087Z,6.57
2018-12-05T02:57:35.392Z,6.13
2018-12-05T03:00:39.485Z,5.73
2018-12-05T03:03:43.610Z,6.37
2018-12-05T03:06:47.477Z,6.57
2018-12-05T03:09:51.833Z,5.53
2018-12-05T03:12:56.097Z,5.63
2018-12-05T03:16:00.500Z,6.07
2018-12-05T03:19:05.173Z,5.57
2018-12-05T03:22:09.760Z,5.27
2018-12-05T03:25:14.227Z,6.22
2018-12-05T03:28:18.129Z,6.30
2018-12-05T03:31:22.539Z,4.20
2018-12-05T03:34:26.646Z,4.80
2018-12-05T03:37:30.563Z,6.27
2018-12-05T03:40:34.585Z,3.90
2018-12-05T03:43:38.499Z,4.50
2018-12-05T03:46:42.915Z,4.77
2018-12-05T03:49:51.409Z,4.47
2018-12-05T03:52:55.335Z,5.90
2018-12-05T03:55:59.515Z,3.93
2018-12-05T03:59:03.859Z,5.60
2018-12-05T04:02:07.763Z,5.53
2018-12-05T04:05:11.742Z,4.77
2018-12-05T04:08:16.778Z,4.30
2018-12-05T04:11:20.964Z,4.87
2018-12-05T04:14:24.966Z,4.20
2018-12-05T04:17:28.860Z,3.63
2018-12-05T04:20:32.784Z,3.70
2018-12-05T04:23:36.627Z,4.73
2018-12-05T04:26:40.593Z,4.87
2018-12-05T04:29:44.437Z,5.17
2018-12-05T04:32:48.522Z,4.93
2018-12-05T04:35:52.944Z,5.50
2018-12-05T04:38:57.212Z,5.17
2018-12-05T04:42:01.415Z,5.78
2018-12-05T04:45:05.930Z,5.70
2018-12-05T04:48:10.047Z,4.90
2018-12-05T04:51:14.264Z,5.97
2018-12-05T04:54:18.530Z,3.97
2018-12-05T04:57:22.721Z,4.43
2018-12-05T05:01:56.434Z,6.07
2018-12-05T05:05:00.747Z,3.93
2018-12-05T05:08:05.740Z,4.23
2018-12-05T05:11:10.123Z,5.13
2018-12-05T05:14:14.510Z,4.60
2018-12-05T05:17:18.981Z,5.47
2018-12-05T05:20:23.211Z,6.00
2018-12-05T05:23:27.913Z,5.67
2018-12-05T05:26:32.242Z,6.67
2018-12-05T05:29:36.659Z,8.43
2018-12-05T05:32:41.029Z,9.83
2018-12-05T05:35:45.065Z,8.33
2018-12-05T05:38:49.523Z,6.70
2018-12-05T05:41:53.764Z,5.80
2018-12-05T05:44:57.986Z,5.37
2018-12-05T05:48:02.204Z,5.20
2018-12-05T05:51:06.544Z,8.73
2018-12-05T05:54:11.072Z,5.77
2018-12-05T05:57:15.345Z,6.70
2018-12-05T06:00:19.722Z,6.60
2018-12-05T06:03:23.870Z,6.10
2018-12-05T06:06:28.292Z,6.80
2018-12-05T06:09:32.643Z,7.20
2018-12-05T06:12:36.986Z,7.40
2018-12-05T06:15:42.331Z,6.50
2018-12-05T06:18:46.715Z,37.33
2018-12-05T06:21:51.170Z,26.63
2018-12-05T06:24:55.315Z,15.57
2018-12-05T06:27:59.698Z,11.67
2018-12-05T06:31:03.852Z,15.00
2018-12-05T06:34:08.185Z,10.30
2018-12-05T06:37:12.606Z,11.83
2018-12-05T06:40:16.956Z,6.80
2018-12-05T06:43:21.227Z,7.20
2018-12-05T06:46:25.590Z,8.33
2018-12-05T06:49:30.112Z,6.90
2018-12-05T06:52:34.436Z,10.10
2018-12-05T06:55:39.311Z,8.10
2018-12-05T06:58:44.563Z,8.10
2018-12-05T07:01:49.208Z,8.93
2018-12-05T07:04:53.538Z,8.10
2018-12-05T07:07:57.809Z,14.87
2018-12-05T07:11:02.236Z,6.77
2018-12-05T07:14:07.098Z,9.60
2018-12-05T07:17:11.358Z,11.20
2018-12-05T07:20:15.647Z,7.27
2018-12-05T07:23:20.079Z,7.63
2018-12-05T07:26:24.273Z,7.40
2018-12-05T07:29:28.654Z,8.93
2018-12-05T07:32:33.094Z,7.57
2018-12-05T07:35:37.637Z,7.30
2018-12-05T07:38:42.124Z,10.03
2018-12-05T07:41:46.861Z,9.10
2018-12-05T07:44:51.216Z,10.50
2018-12-05T07:47:55.475Z,9.53
2018-12-05T07:50:59.813Z,8.67
2018-12-05T07:54:04.044Z,9.33
2018-12-05T07:57:09.748Z,8.10
2018-12-05T08:00:14.801Z,11.70
2018-12-05T08:03:19.026Z,12.75
2018-12-05T08:06:23.135Z,9.53
2018-12-05T08:09:27.269Z,8.90
2018-12-05T08:12:31.658Z,12.70
2018-12-05T08:15:36.188Z,10.70
2018-12-05T08:18:40.462Z,12.00
2018-12-05T08:21:45.680Z,9.73
2018-12-05T08:24:50.598Z,7.83
2018-12-05T08:27:55.184Z,11.03
2018-12-05T08:30:59.536Z,7.80
2018-12-05T08:34:03.560Z,9.33
2018-12-05T08:37:07.830Z,6.80
2018-12-05T08:40:12.892Z,9.63
2018-12-05T08:43:17.240Z,9.17
2018-12-05T08:46:21.504Z,13.73
2018-12-05T08:49:27.447Z,13.70
2018-12-05T08:52:31.968Z,9.50
2018-12-05T08:55:35.921Z,5.60
2018-12-05T08:58:40.185Z,8.23
2018-12-05T09:01:44.409Z,7.90
2018-12-05T09:04:48.673Z,11.33
2018-12-05T09:07:52.857Z,10.10
2018-12-05T09:10:56.891Z,4.97
2018-12-05T09:14:01.314Z,8.93
2018-12-05T09:17:05.341Z,10.57
2018-12-05T09:20:09.740Z,9.17
2018-12-05T09:23:14.201Z,7.40
2018-12-05T09:26:18.717Z,9.50
2018-12-05T09:29:23.277Z,5.30
2018-12-05T09:32:27.336Z,6.80
2018-12-05T09:35:31.909Z,9.17
2018-12-05T09:38:36.235Z,5.03
2018-12-05T09:41:40.793Z,4.63
2018-12-05T09:44:45.200Z,6.83
2018-12-05T09:47:49.686Z,7.93
2018-12-05T09:50:54.052Z,8.23
2018-12-05T09:53:58.056Z,18.57
2018-12-05T09:57:08.204Z,9.27
2018-12-05T10:00:12.435Z,7.67
2018-12-05T10:03:17.053Z,5.83
2018-12-05T10:06:21.015Z,6.93
2018-12-05T10:09:25.404Z,8.33
2018-12-05T10:12:29.397Z,4.80
2018-12-05T10:15:33.675Z,5.40
2018-12-05T10:18:38.047Z,4.10
2018-12-05T10:21:42.274Z,4.30
2018-12-05T10:24:46.448Z,2.60
2018-12-05T10:27:50.674Z,4.90
2018-12-05T10:30:55.057Z,4.93
2018-12-05T10:34:00.104Z,4.60
2018-12-05T10:37:05.589Z,3.23
2018-12-05T10:40:10.002Z,6.00
2018-12-05T10:43:14.553Z,7.40
2018-12-05T10:46:19.542Z,5.10
2018-12-05T10:49:24.089Z,4.90
2018-12-05T10:52:28.291Z,5.90
2018-12-05T10:55:32.578Z,3.60
2018-12-05T10:58:36.925Z,6.73
2018-12-05T11:01:46.581Z,5.50
2018-12-05T11:04:56.088Z,6.83
2018-12-05T11:08:06.400Z,4.07
2018-12-05T11:11:15.858Z,5.80
2018-12-05T11:14:25.371Z,7.93
2018-12-05T11:17:35.137Z,7.17
2018-12-05T11:20:44.721Z,3.57
2018-12-05T11:23:58.130Z,4.20
2018-12-05T11:27:02.778Z,5.47
2018-12-05T11:30:08.287Z,6.03
2018-12-05T11:33:12.667Z,3.23
2018-12-05T11:36:16.628Z,3.27
2018-12-05T11:39:20.950Z,9.87
2018-12-05T11:42:25.321Z,4.73
2018-12-05T11:45:30.451Z,6.53
2018-12-05T11:48:35.064Z,6.83
2018-12-05T11:51:39.379Z,9.97
2018-12-05T11:54:43.878Z,6.73
2018-12-05T11:57:48.284Z,5.23
2018-12-05T12:00:52.259Z,6.00
2018-12-05T12:03:56.208Z,7.10
2018-12-05T12:07:05.467Z,5.83
2018-12-05T12:10:09.815Z,6.33
2018-12-05T12:13:14.331Z,5.80
2018-12-05T12:16:18.851Z,11.60
2018-12-05T12:19:23.049Z,8.70
2018-12-05T12:22:28.050Z,7.20
2018-12-05T12:25:32.690Z,10.07
2018-12-05T12:28:37.108Z,13.83
2018-12-05T12:31:41.662Z,9.50
2018-12-05T12:34:46.087Z,5.60
2018-12-05T12:37:50.286Z,7.03
2018-12-05T12:40:54.745Z,6.50
2018-12-05T12:43:59.123Z,7.20
2018-12-05T12:47:03.398Z,7.50
2018-12-05T12:50:07.772Z,11.13
2018-12-05T12:53:12.353Z,5.67
2018-12-05T12:56:19.611Z,10.57
2018-12-05T12:59:24.163Z,7.30
2018-12-05T13:02:28.964Z,7.93
2018-12-05T13:05:33.410Z,9.80
2018-12-05T13:08:37.642Z,9.00
2018-12-05T13:11:41.905Z,11.23
2018-12-05T13:14:47.941Z,12.13
2018-12-05T13:17:52.211Z,9.60
2018-12-05T13:20:57.480Z,13.43
2018-12-05T13:24:01.948Z,8.53
2018-12-05T13:27:06.392Z,4.80
2018-12-05T13:30:12.501Z,5.13
2018-12-05T13:33:16.899Z,8.87
2018-12-05T13:36:21.313Z,8.33
2018-12-05T13:39:25.709Z,8.53
2018-12-05T13:42:29.925Z,6.97
2018-12-05T13:45:35.347Z,7.20
2018-12-05T13:48:40.819Z,7.57
2018-12-05T13:51:45.332Z,5.90
2018-12-05T13:54:51.303Z,5.37
2018-12-05T13:57:55.905Z,6.80
2018-12-05T14:01:00.284Z,6.23
2018-12-05T14:04:04.842Z,7.57
2018-12-05T14:07:10.079Z,12.30
2018-12-05T14:10:15.056Z,5.30
2018-12-05T14:13:19.732Z,6.37
2018-12-05T14:16:26.686Z,9.10
2018-12-05T14:19:31.311Z,7.73
2018-12-05T14:22:36.304Z,5.77
2018-12-05T14:25:40.243Z,6.00
2018-12-05T14:28:44.708Z,6.27
2018-12-05T14:31:49.162Z,8.63
2018-12-05T14:34:53.612Z,6.13
2018-12-05T14:37:58.002Z,5.73
2018-12-05T14:41:01.976Z,11.10
2018-12-05T14:44:06.502Z,14.40
2018-12-05T14:47:10.936Z,11.55
2018-12-05T14:50:15.223Z,6.10
2018-12-05T14:53:19.334Z,8.97
2018-12-05T14:56:23.333Z,7.03
2018-12-05T14:59:28.014Z,4.80
2018-12-05T15:02:32.510Z,11.13
2018-12-05T15:05:36.504Z,6.53
2018-12-05T15:08:40.530Z,12.10
2018-12-05T15:11:44.842Z,6.43
2018-12-05T15:14:49.043Z,6.20
2018-12-05T15:17:53.679Z,8.33
2018-12-05T15:20:58.580Z,8.13
2018-12-05T15:24:02.996Z,6.40
2018-12-05T15:27:07.509Z,11.60
2018-12-05T15:30:11.727Z,8.73
2018-12-05T15:33:16.353Z,6.13
2018-12-05T15:36:20.804Z,11.23
2018-12-05T15:39:24.798Z,9.53
2018-12-05T15:42:28.774Z,10.40
2018-12-05T15:45:32.876Z,8.17
2018-12-05T15:48:37.190Z,7.40
2018-12-05T15:51:41.389Z,5.67
2018-12-05T15:54:45.719Z,16.00
2018-12-05T15:57:50.322Z,7.73
2018-12-05T16:00:54.616Z,11.27
2018-12-05T16:03:59.177Z,11.40
2018-12-05T16:07:03.491Z,9.00
2018-12-05T16:10:08.411Z,11.80
2018-12-05T16:13:12.367Z,12.60
2018-12-05T16:16:16.622Z,15.13
2018-12-05T16:19:20.588Z,11.40
2018-12-05T16:22:24.738Z,13.40
2018-12-05T16:25:28.896Z,14.93
2018-12-05T16:28:33.147Z,8.53
2018-12-05T16:31:37.562Z,15.67
2018-12-05T16:34:41.880Z,12.90
2018-12-05T16:37:46.429Z,11.22
2018-12-05T16:40:51.041Z,15.77
2018-12-05T16:43:55.293Z,10.77
2018-12-05T16:46:59.684Z,20.83
2018-12-05T16:50:04.137Z,18.10
2018-12-05T16:53:08.655Z,25.40
2018-12-05T16:56:12.969Z,19.70
2018-12-05T16:59:17.351Z,13.83
2018-12-05T17:02:21.560Z,14.87
2018-12-05T17:05:26.430Z,11.13
2018-12-05T17:08:30.748Z,19.73
2018-12-05T17:11:36.377Z,21.10
2018-12-05T17:14:41.268Z,14.17
2018-12-05T17:17:45.770Z,10.97
2018-12-05T17:20:50.174Z,15.87
2018-12-05T17:23:54.682Z,16.00
2018-12-05T17:26:58.753Z,12.95
2018-12-05T17:30:02.981Z,11.97
2018-12-05T17:33:07.330Z,13.53
2018-12-05T17:36:11.688Z,16.30
2018-12-05T17:39:16.127Z,12.97
2018-12-05T17:42:21.998Z,12.27
2018-12-05T17:45:26.449Z,14.33
2018-12-05T17:48:30.937Z,12.03
2018-12-05T17:51:35.245Z,16.53
2018-12-05T17:54:39.588Z,16.40
2018-12-05T17:57:43.849Z,13.97
2018-12-05T18:00:48.113Z,11.90
2018-12-05T18:03:52.127Z,11.90
2018-12-05T18:06:56.475Z,11.30
2018-12-05T18:10:00.866Z,13.00
2018-12-05T18:13:04.909Z,13.20
2018-12-05T18:16:09.220Z,15.27
2018-12-05T18:19:13.760Z,19.53
2018-12-05T18:22:18.149Z,15.97
2018-12-05T18:25:22.675Z,11.97
2018-12-05T18:28:26.960Z,16.27
2018-12-05T18:31:31.444Z,14.30
2018-12-05T18:34:35.889Z,15.50
2018-12-05T18:37:40.089Z,18.83
2018-12-05T18:40:44.120Z,17.17
2018-12-05T18:43:48.064Z,14.40
2018-12-05T18:46:52.411Z,17.00
2018-12-05T18:49:56.672Z,22.37
2018-12-05T18:53:00.987Z,16.73
2018-12-05T18:56:05.953Z,19.67
2018-12-05T18:59:10.361Z,16.73
2018-12-05T19:02:16.386Z,19.37
2018-12-05T19:05:20.919Z,17.87
2018-12-05T19:08:24.799Z,18.33
2018-12-05T19:11:30.007Z,19.10
2018-12-05T19:14:39.508Z,23.00
2018-12-05T19:17:50.359Z,19.20
2018-12-05T19:20:55.684Z,24.67
2018-12-05T19:24:00.087Z,14.20
2018-12-05T19:27:04.383Z,22.23
2018-12-05T19:30:09.765Z,24.30
2018-12-05T19:33:14.238Z,20.50
2018-12-05T19:36:18.649Z,15.60
2018-12-05T19:39:23.057Z,22.60
2018-12-05T19:42:27.697Z,18.97
2018-12-05T19:45:32.414Z,21.53
2018-12-05T19:48:37.025Z,21.48
2018-12-05T19:51:41.928Z,17.77
2018-12-05T19:54:45.919Z,22.47
2018-12-05T19:57:50.342Z,20.80
2018-12-05T20:00:54.402Z,25.60
2018-12-05T20:03:58.599Z,18.13
2018-12-05T20:07:02.665Z,19.43
2018-12-05T20:10:07.135Z,18.83
2018-12-05T20:13:11.253Z,17.13
2018-12-05T20:16:15.727Z,22.87
2018-12-05T20:19:20.385Z,21.27
2018-12-05T20:22:24.675Z,15.93
2018-12-05T20:25:29.578Z,18.93
2018-12-05T20:28:33.829Z,13.60
2018-12-05T20:31:38.289Z,19.53
2018-12-05T20:34:42.575Z,13.60
2018-12-05T20:37:46.947Z,16.70
2018-12-05T20:40:51.152Z,16.03
2018-12-05T20:43:55.485Z,15.27
2018-12-05T20:46:59.927Z,14.50
2018-12-05T20:50:04.574Z,13.60
2018-12-05T20:53:08.985Z,18.07
2018-12-05T20:56:13.194Z,14.00
2018-12-05T20:59:17.536Z,13.80
2018-12-05T21:02:21.913Z,16.50
2018-12-05T21:05:26.164Z,16.20
2018-12-05T21:08:30.565Z,15.53
2018-12-05T21:11:34.761Z,17.53
2018-12-05T21:14:39.269Z,16.37
2018-12-05T21:17:43.754Z,18.30
2018-12-05T21:20:47.900Z,18.07
2018-12-05T21:23:52.265Z,13.00
2018-12-05T21:26:56.490Z,21.77
2018-12-05T21:30:02.765Z,14.23
2018-12-05T21:33:07.358Z,16.37
2018-12-05T21:36:11.784Z,20.40
2018-12-05T21:39:16.118Z,18.13
2018-12-05T21:42:21.708Z,13.90
2018-12-05T21:45:27.979Z,22.90
2018-12-05T21:48:32.024Z,15.47
2018-12-05T21:51:36.456Z,15.17
2018-12-05T21:54:42.924Z,18.50
2018-12-05T21:57:47.290Z,15.27
2018-12-05T22:00:51.901Z,15.13
2018-12-05T22:03:56.647Z,16.93
2018-12-05T22:07:00.961Z,16.70
2018-12-05T22:10:06.865Z,15.07
2018-12-05T22:13:11.371Z,11.83
2018-12-05T22:16:15.588Z,14.63
2018-12-05T22:19:19.790Z,14.63
2018-12-05T22:22:23.718Z,16.50
2018-12-05T22:25:27.739Z,16.93
2018-12-05T22:28:38.723Z,16.37
2018-12-05T22:31:43.046Z,19.80
2018-12-05T22:34:47.647Z,18.10
2018-12-05T22:37:51.929Z,13.13
2018-12-05T22:40:55.942Z,16.67
2018-12-05T22:43:59.891Z,17.60
2018-12-05T22:47:03.881Z,18.17
2018-12-05T22:50:08.769Z,16.00
2018-12-05T22:53:13.573Z,13.70
2018-12-05T22:56:17.986Z,16.03
2018-12-05T22:59:22.169Z,14.30
2018-12-05T23:02:26.703Z,15.63
2018-12-05T23:05:30.784Z,14.67
2018-12-05T23:08:34.787Z,14.60
2018-12-05T23:11:38.800Z,15.67
2018-12-05T23:14:43.339Z,13.07
2018-12-05T23:17:47.774Z,14.63
2018-12-05T23:20:51.960Z,16.87
2018-12-05T23:23:56.065Z,19.07
2018-12-05T23:27:07.128Z,13.60
2018-12-05T23:30:11.360Z,18.80
2018-12-05T23:33:16.189Z,13.17
2018-12-05T23:36:20.800Z,14.50
2018-12-05T23:39:24.926Z,15.63
2018-12-05T23:42:29.458Z,21.30
2018-12-05T23:45:34.015Z,16.83
2018-12-05T23:48:38.499Z,19.03
2018-12-05T23:51:42.771Z,16.27
2018-12-05T23:54:47.092Z,19.40
2018-12-05T23:57:51.405Z,15.90
